sensor_id;sensor_type;location;lat;lon;timestamp;temperature;humidity
57390;DHT22;43217;52.694;6.214;2022-11-13T00:01:40;7.00;99.90
57390;DHT22;43217;52.694;6.214;2022-11-13T00:04:06;7.00;99.90
57390;DHT22;43217;52.694;6.214;2022-11-13T00:06:31;7.00;99.90
57390;DHT22;43217;52.694;6.214;2022-11-13T00:08:57;7.00;99.90
57390;DHT22;43217;52.694;6.214;2022-11-13T00:11:22;7.00;99.90
57390;DHT22;43217;52.694;6.214;2022-11-13T00:13:48;7.00;99.90
57390;DHT22;43217;52.694;6.214;2022-11-13T00:16:17;7.10;99.90
57390;DHT22;43217;52.694;6.214;2022-11-13T00:18:43;7.10;99.90
57390;DHT22;43217;52.694;6.214;2022-11-13T00:21:14;7.10;99.90
57390;DHT22;43217;52.694;6.214;2022-11-13T00:23:40;7.10;99.90
57390;DHT22;43217;52.694;6.214;2022-11-13T00:26:10;7.10;99.90
57390;DHT22;43217;52.694;6.214;2022-11-13T00:28:36;7.10;99.90
57390;DHT22;43217;52.694;6.214;2022-11-13T00:31:03;7.10;99.90
57390;DHT22;43217;52.694;6.214;2022-11-13T00:33:29;7.20;99.90
57390;DHT22;43217;52.694;6.214;2022-11-13T00:36:01;7.10;99.90
57390;DHT22;43217;52.694;6.214;2022-11-13T00:38:27;7.10;99.90
57390;DHT22;43217;52.694;6.214;2022-11-13T00:40:53;7.10;99.90
57390;DHT22;43217;52.694;6.214;2022-11-13T00:43:18;7.10;99.90
57390;DHT22;43217;52.694;6.214;2022-11-13T00:45:44;7.10;99.90
57390;DHT22;43217;52.694;6.214;2022-11-13T00:48:10;7.00;99.90
57390;DHT22;43217;52.694;6.214;2022-11-13T00:50:35;7.10;99.90
57390;DHT22;43217;52.694;6.214;2022-11-13T00:53:01;7.10;99.90
57390;DHT22;43217;52.694;6.214;2022-11-13T00:55:27;7.00;99.90
57390;DHT22;43217;52.694;6.214;2022-11-13T00:57:54;7.10;99.90
57390;DHT22;43217;52.694;6.214;2022-11-13T01:00:20;7.10;99.90
57390;DHT22;43217;52.694;6.214;2022-11-13T01:02:46;7.10;99.90
57390;DHT22;43217;52.694;6.214;2022-11-13T01:05:11;7.10;99.90
57390;DHT22;43217;52.694;6.214;2022-11-13T01:07:37;7.10;99.90
57390;DHT22;43217;52.694;6.214;2022-11-13T01:10:04;7.10;99.90
57390;DHT22;43217;52.694;6.214;2022-11-13T01:12:30;7.10;99.90
57390;DHT22;43217;52.694;6.214;2022-11-13T01:14:55;7.10;99.90
57390;DHT22;43217;52.694;6.214;2022-11-13T01:17:21;7.10;99.90
57390;DHT22;43217;52.694;6.214;2022-11-13T01:19:47;7.10;99.90
57390;DHT22;43217;52.694;6.214;2022-11-13T01:22:13;7.10;99.90
57390;DHT22;43217;52.694;6.214;2022-11-13T01:24:38;7.10;99.90
57390;DHT22;43217;52.694;6.214;2022-11-13T01:27:04;7.10;99.90
57390;DHT22;43217;52.694;6.214;2022-11-13T01:29:30;7.10;99.90
57390;DHT22;43217;52.694;6.214;2022-11-13T01:31:56;7.10;99.90
57390;DHT22;43217;52.694;6.214;2022-11-13T01:34:21;7.10;99.90
57390;DHT22;43217;52.694;6.214;2022-11-13T01:36:47;7.10;99.90
57390;DHT22;43217;52.694;6.214;2022-11-13T01:39:13;7.10;99.90
57390;DHT22;43217;52.694;6.214;2022-11-13T01:41:38;7.10;99.90
57390;DHT22;43217;52.694;6.214;2022-11-13T01:44:09;7.10;99.90
57390;DHT22;43217;52.694;6.214;2022-11-13T01:46:51;7.10;99.90
57390;DHT22;43217;52.694;6.214;2022-11-13T01:49:33;7.20;99.90
57390;DHT22;43217;52.694;6.214;2022-11-13T01:52:03;7.20;99.90
57390;DHT22;43217;52.694;6.214;2022-11-13T01:54:34;7.10;99.90
57390;DHT22;43217;52.694;6.214;2022-11-13T01:57:03;7.10;99.90
57390;DHT22;43217;52.694;6.214;2022-11-13T01:59:33;7.10;99.90
57390;DHT22;43217;52.694;6.214;2022-11-13T02:02:00;7.10;99.90
57390;DHT22;43217;52.694;6.214;2022-11-13T02:04:26;7.10;99.90
57390;DHT22;43217;52.694;6.214;2022-11-13T02:07:10;7.10;99.90
57390;DHT22;43217;52.694;6.214;2022-11-13T02:09:42;7.00;99.90
57390;DHT22;43217;52.694;6.214;2022-11-13T02:15:12;7.00;99.90
57390;DHT22;43217;52.694;6.214;2022-11-13T02:17:47;7.00;99.90
57390;DHT22;43217;52.694;6.214;2022-11-13T02:20:14;7.00;99.90
57390;DHT22;43217;52.694;6.214;2022-11-13T02:25:40;7.00;99.90
57390;DHT22;43217;52.694;6.214;2022-11-13T02:28:06;7.00;99.90
57390;DHT22;43217;52.694;6.214;2022-11-13T02:30:34;7.00;99.90
57390;DHT22;43217;52.694;6.214;2022-11-13T02:33:00;7.00;99.90
57390;DHT22;43217;52.694;6.214;2022-11-13T02:35:31;7.00;99.90
57390;DHT22;43217;52.694;6.214;2022-11-13T02:38:00;7.00;99.90
57390;DHT22;43217;52.694;6.214;2022-11-13T02:40:27;7.00;99.90
57390;DHT22;43217;52.694;6.214;2022-11-13T02:42:53;6.90;99.90
57390;DHT22;43217;52.694;6.214;2022-11-13T02:45:19;6.90;99.90
57390;DHT22;43217;52.694;6.214;2022-11-13T02:47:44;6.90;99.90
57390;DHT22;43217;52.694;6.214;2022-11-13T02:50:11;6.90;99.90
57390;DHT22;43217;52.694;6.214;2022-11-13T02:52:36;6.80;99.90
57390;DHT22;43217;52.694;6.214;2022-11-13T02:55:02;6.80;99.90
57390;DHT22;43217;52.694;6.214;2022-11-13T02:57:28;6.80;99.90
57390;DHT22;43217;52.694;6.214;2022-11-13T02:59:54;6.80;99.90
57390;DHT22;43217;52.694;6.214;2022-11-13T03:02:20;6.80;99.90
57390;DHT22;43217;52.694;6.214;2022-11-13T03:04:45;6.80;99.90
57390;DHT22;43217;52.694;6.214;2022-11-13T03:07:11;6.80;99.90
57390;DHT22;43217;52.694;6.214;2022-11-13T03:09:40;6.80;99.90
57390;DHT22;43217;52.694;6.214;2022-11-13T03:12:07;6.70;99.90
57390;DHT22;43217;52.694;6.214;2022-11-13T03:14:34;6.80;99.90
57390;DHT22;43217;52.694;6.214;2022-11-13T03:17:00;6.80;99.90
57390;DHT22;43217;52.694;6.214;2022-11-13T03:19:29;6.80;99.90
57390;DHT22;43217;52.694;6.214;2022-11-13T03:21:54;6.80;99.90
57390;DHT22;43217;52.694;6.214;2022-11-13T03:24:20;6.80;99.90
57390;DHT22;43217;52.694;6.214;2022-11-13T03:26:46;6.80;99.90
57390;DHT22;43217;52.694;6.214;2022-11-13T03:29:22;6.80;99.90
57390;DHT22;43217;52.694;6.214;2022-11-13T03:31:47;6.80;99.90
57390;DHT22;43217;52.694;6.214;2022-11-13T03:34:13;6.80;99.90
57390;DHT22;43217;52.694;6.214;2022-11-13T03:36:39;6.70;99.90
57390;DHT22;43217;52.694;6.214;2022-11-13T03:39:04;6.70;99.90
57390;DHT22;43217;52.694;6.214;2022-11-13T03:41:30;6.70;99.90
57390;DHT22;43217;52.694;6.214;2022-11-13T03:43:56;6.70;99.90
57390;DHT22;43217;52.694;6.214;2022-11-13T03:46:21;6.70;99.90
57390;DHT22;43217;52.694;6.214;2022-11-13T03:48:47;6.70;99.90
57390;DHT22;43217;52.694;6.214;2022-11-13T03:51:12;6.70;99.90
57390;DHT22;43217;52.694;6.214;2022-11-13T03:53:38;6.70;99.90
57390;DHT22;43217;52.694;6.214;2022-11-13T03:56:04;6.70;99.90
57390;DHT22;43217;52.694;6.214;2022-11-13T03:58:30;6.60;99.90
57390;DHT22;43217;52.694;6.214;2022-11-13T04:00:56;6.60;99.90
57390;DHT22;43217;52.694;6.214;2022-11-13T04:03:22;6.60;99.90
57390;DHT22;43217;52.694;6.214;2022-11-13T04:05:49;6.50;99.90
57390;DHT22;43217;52.694;6.214;2022-11-13T04:08:16;6.50;99.90
57390;DHT22;43217;52.694;6.214;2022-11-13T04:10:42;6.50;99.90
57390;DHT22;43217;52.694;6.214;2022-11-13T04:13:08;6.50;99.90
57390;DHT22;43217;52.694;6.214;2022-11-13T04:15:34;6.50;99.90
57390;DHT22;43217;52.694;6.214;2022-11-13T04:18:00;6.40;99.90
57390;DHT22;43217;52.694;6.214;2022-11-13T04:20:26;6.50;99.90
57390;DHT22;43217;52.694;6.214;2022-11-13T04:22:55;6.40;99.90
57390;DHT22;43217;52.694;6.214;2022-11-13T04:25:21;6.40;99.90
57390;DHT22;43217;52.694;6.214;2022-11-13T04:27:51;6.40;99.90
57390;DHT22;43217;52.694;6.214;2022-11-13T04:30:18;6.40;99.90
57390;DHT22;43217;52.694;6.214;2022-11-13T04:32:44;6.40;99.90
57390;DHT22;43217;52.694;6.214;2022-11-13T04:35:10;6.30;99.90
57390;DHT22;43217;52.694;6.214;2022-11-13T04:37:35;6.30;99.90
57390;DHT22;43217;52.694;6.214;2022-11-13T04:40:02;6.30;99.90
57390;DHT22;43217;52.694;6.214;2022-11-13T04:42:27;6.30;99.90
57390;DHT22;43217;52.694;6.214;2022-11-13T04:45:12;6.30;99.90
57390;DHT22;43217;52.694;6.214;2022-11-13T04:47:37;6.30;99.90
57390;DHT22;43217;52.694;6.214;2022-11-13T04:50:03;6.30;99.90
57390;DHT22;43217;52.694;6.214;2022-11-13T04:52:30;6.30;99.90
57390;DHT22;43217;52.694;6.214;2022-11-13T04:54:55;6.30;99.90
57390;DHT22;43217;52.694;6.214;2022-11-13T04:57:21;6.30;99.90
57390;DHT22;43217;52.694;6.214;2022-11-13T04:59:47;6.30;99.90
57390;DHT22;43217;52.694;6.214;2022-11-13T05:02:13;6.30;99.90
57390;DHT22;43217;52.694;6.214;2022-11-13T05:04:38;6.30;99.90
57390;DHT22;43217;52.694;6.214;2022-11-13T05:07:04;6.30;99.90
57390;DHT22;43217;52.694;6.214;2022-11-13T05:09:29;6.30;99.90
57390;DHT22;43217;52.694;6.214;2022-11-13T05:11:55;6.30;99.90
57390;DHT22;43217;52.694;6.214;2022-11-13T05:14:21;6.20;99.90
57390;DHT22;43217;52.694;6.214;2022-11-13T05:16:46;6.20;99.90
57390;DHT22;43217;52.694;6.214;2022-11-13T05:19:14;6.20;99.90
57390;DHT22;43217;52.694;6.214;2022-11-13T05:21:40;6.20;99.90
57390;DHT22;43217;52.694;6.214;2022-11-13T05:24:08;6.20;99.90
57390;DHT22;43217;52.694;6.214;2022-11-13T05:26:36;6.20;99.90
57390;DHT22;43217;52.694;6.214;2022-11-13T05:29:02;6.20;99.90
57390;DHT22;43217;52.694;6.214;2022-11-13T05:31:28;6.20;99.90
57390;DHT22;43217;52.694;6.214;2022-11-13T05:33:53;6.20;99.90
57390;DHT22;43217;52.694;6.214;2022-11-13T05:36:28;6.20;99.90
57390;DHT22;43217;52.694;6.214;2022-11-13T05:38:54;6.20;99.90
57390;DHT22;43217;52.694;6.214;2022-11-13T05:41:23;6.20;99.90
57390;DHT22;43217;52.694;6.214;2022-11-13T05:43:50;6.20;99.90
57390;DHT22;43217;52.694;6.214;2022-11-13T05:46:20;6.10;99.90
57390;DHT22;43217;52.694;6.214;2022-11-13T05:48:50;6.10;99.90
57390;DHT22;43217;52.694;6.214;2022-11-13T05:51:22;6.10;99.90
57390;DHT22;43217;52.694;6.214;2022-11-13T05:53:48;6.10;99.90
57390;DHT22;43217;52.694;6.214;2022-11-13T05:56:16;6.10;99.90
57390;DHT22;43217;52.694;6.214;2022-11-13T05:58:42;6.10;99.90
57390;DHT22;43217;52.694;6.214;2022-11-13T06:03:44;6.00;99.90
57390;DHT22;43217;52.694;6.214;2022-11-13T06:06:12;6.00;99.90
57390;DHT22;43217;52.694;6.214;2022-11-13T06:08:39;6.00;99.90
57390;DHT22;43217;52.694;6.214;2022-11-13T06:11:07;6.00;99.90
57390;DHT22;43217;52.694;6.214;2022-11-13T06:13:33;6.00;99.90
57390;DHT22;43217;52.694;6.214;2022-11-13T06:16:07;5.90;99.90
57390;DHT22;43217;52.694;6.214;2022-11-13T06:18:34;5.90;99.90
57390;DHT22;43217;52.694;6.214;2022-11-13T06:21:05;5.90;99.90
57390;DHT22;43217;52.694;6.214;2022-11-13T06:23:32;5.80;99.90
57390;DHT22;43217;52.694;6.214;2022-11-13T06:26:04;5.80;99.90
57390;DHT22;43217;52.694;6.214;2022-11-13T06:28:31;5.80;99.90
57390;DHT22;43217;52.694;6.214;2022-11-13T06:31:05;5.70;99.90
57390;DHT22;43217;52.694;6.214;2022-11-13T06:33:31;5.70;99.90
57390;DHT22;43217;52.694;6.214;2022-11-13T06:36:01;5.70;99.90
57390;DHT22;43217;52.694;6.214;2022-11-13T06:38:32;5.60;99.90
57390;DHT22;43217;52.694;6.214;2022-11-13T06:41:01;5.60;99.90
57390;DHT22;43217;52.694;6.214;2022-11-13T06:43:27;5.60;99.90
57390;DHT22;43217;52.694;6.214;2022-11-13T06:45:54;5.60;99.90
57390;DHT22;43217;52.694;6.214;2022-11-13T06:48:19;5.60;99.90
57390;DHT22;43217;52.694;6.214;2022-11-13T06:50:45;5.60;99.90
57390;DHT22;43217;52.694;6.214;2022-11-13T06:53:11;5.60;99.90
57390;DHT22;43217;52.694;6.214;2022-11-13T06:55:51;5.60;99.90
57390;DHT22;43217;52.694;6.214;2022-11-13T06:58:16;5.60;99.90
57390;DHT22;43217;52.694;6.214;2022-11-13T07:00:43;5.60;99.90
57390;DHT22;43217;52.694;6.214;2022-11-13T07:03:19;5.60;99.90
57390;DHT22;43217;52.694;6.214;2022-11-13T07:05:46;5.60;99.90
57390;DHT22;43217;52.694;6.214;2022-11-13T07:08:12;5.60;99.90
57390;DHT22;43217;52.694;6.214;2022-11-13T07:10:38;5.60;99.90
57390;DHT22;43217;52.694;6.214;2022-11-13T07:13:05;5.60;99.90
57390;DHT22;43217;52.694;6.214;2022-11-13T07:15:35;5.70;99.90
57390;DHT22;43217;52.694;6.214;2022-11-13T07:18:02;5.70;99.90
57390;DHT22;43217;52.694;6.214;2022-11-13T07:20:28;5.70;99.90
57390;DHT22;43217;52.694;6.214;2022-11-13T07:22:58;5.70;99.90
57390;DHT22;43217;52.694;6.214;2022-11-13T07:25:24;5.70;99.90
57390;DHT22;43217;52.694;6.214;2022-11-13T07:27:50;5.80;99.90
57390;DHT22;43217;52.694;6.214;2022-11-13T07:30:25;5.80;99.90
57390;DHT22;43217;52.694;6.214;2022-11-13T07:32:50;5.80;99.90
57390;DHT22;43217;52.694;6.214;2022-11-13T07:35:16;5.80;99.90
57390;DHT22;43217;52.694;6.214;2022-11-13T07:37:42;5.80;99.90
57390;DHT22;43217;52.694;6.214;2022-11-13T07:40:08;5.80;99.90
57390;DHT22;43217;52.694;6.214;2022-11-13T07:42:34;5.80;99.90
57390;DHT22;43217;52.694;6.214;2022-11-13T07:45:00;5.80;99.90
57390;DHT22;43217;52.694;6.214;2022-11-13T07:47:26;5.90;99.90
57390;DHT22;43217;52.694;6.214;2022-11-13T07:49:51;5.90;99.90
57390;DHT22;43217;52.694;6.214;2022-11-13T07:52:17;5.90;99.90
57390;DHT22;43217;52.694;6.214;2022-11-13T07:54:43;5.90;99.90
57390;DHT22;43217;52.694;6.214;2022-11-13T07:57:09;6.00;99.90
57390;DHT22;43217;52.694;6.214;2022-11-13T07:59:34;6.10;99.90
57390;DHT22;43217;52.694;6.214;2022-11-13T08:02:00;6.00;99.90
57390;DHT22;43217;52.694;6.214;2022-11-13T08:04:25;6.10;99.90
57390;DHT22;43217;52.694;6.214;2022-11-13T08:06:51;6.20;99.90
57390;DHT22;43217;52.694;6.214;2022-11-13T08:09:17;6.20;99.90
57390;DHT22;43217;52.694;6.214;2022-11-13T08:11:42;6.30;99.90
57390;DHT22;43217;52.694;6.214;2022-11-13T08:14:09;6.30;99.90
57390;DHT22;43217;52.694;6.214;2022-11-13T08:16:35;6.40;99.90
57390;DHT22;43217;52.694;6.214;2022-11-13T08:19:01;6.40;99.90
57390;DHT22;43217;52.694;6.214;2022-11-13T08:21:27;6.50;99.90
57390;DHT22;43217;52.694;6.214;2022-11-13T08:23:52;6.60;99.90
57390;DHT22;43217;52.694;6.214;2022-11-13T08:26:18;6.60;99.90
57390;DHT22;43217;52.694;6.214;2022-11-13T08:28:44;6.70;99.90
57390;DHT22;43217;52.694;6.214;2022-11-13T08:31:12;6.80;99.90
57390;DHT22;43217;52.694;6.214;2022-11-13T08:33:38;6.90;99.90
57390;DHT22;43217;52.694;6.214;2022-11-13T08:36:04;6.90;99.90
57390;DHT22;43217;52.694;6.214;2022-11-13T08:38:30;7.00;99.90
57390;DHT22;43217;52.694;6.214;2022-11-13T08:40:56;7.00;99.90
57390;DHT22;43217;52.694;6.214;2022-11-13T08:43:22;7.10;99.90
57390;DHT22;43217;52.694;6.214;2022-11-13T08:45:48;7.20;99.90
57390;DHT22;43217;52.694;6.214;2022-11-13T08:48:14;7.20;99.90
57390;DHT22;43217;52.694;6.214;2022-11-13T08:50:39;7.30;99.90
57390;DHT22;43217;52.694;6.214;2022-11-13T08:53:05;7.40;99.90
57390;DHT22;43217;52.694;6.214;2022-11-13T08:55:32;7.40;99.90
57390;DHT22;43217;52.694;6.214;2022-11-13T08:57:59;7.50;99.90
57390;DHT22;43217;52.694;6.214;2022-11-13T09:00:26;7.60;99.90
57390;DHT22;43217;52.694;6.214;2022-11-13T09:02:53;7.60;99.90
57390;DHT22;43217;52.694;6.214;2022-11-13T09:05:19;7.70;99.90
57390;DHT22;43217;52.694;6.214;2022-11-13T09:07:45;7.80;99.90
57390;DHT22;43217;52.694;6.214;2022-11-13T09:10:11;7.90;99.90
57390;DHT22;43217;52.694;6.214;2022-11-13T09:12:37;7.90;99.90
57390;DHT22;43217;52.694;6.214;2022-11-13T09:15:03;8.00;99.90
57390;DHT22;43217;52.694;6.214;2022-11-13T09:17:30;8.00;99.90
57390;DHT22;43217;52.694;6.214;2022-11-13T09:19:55;8.10;99.90
57390;DHT22;43217;52.694;6.214;2022-11-13T09:22:21;8.20;99.90
57390;DHT22;43217;52.694;6.214;2022-11-13T09:24:47;8.20;99.90
57390;DHT22;43217;52.694;6.214;2022-11-13T09:27:13;8.30;99.90
57390;DHT22;43217;52.694;6.214;2022-11-13T09:29:39;8.40;99.90
57390;DHT22;43217;52.694;6.214;2022-11-13T09:32:04;8.40;99.90
57390;DHT22;43217;52.694;6.214;2022-11-13T09:34:30;8.50;99.90
57390;DHT22;43217;52.694;6.214;2022-11-13T09:36:56;8.50;99.90
57390;DHT22;43217;52.694;6.214;2022-11-13T09:39:21;8.60;99.90
57390;DHT22;43217;52.694;6.214;2022-11-13T09:42:08;8.60;99.90
57390;DHT22;43217;52.694;6.214;2022-11-13T09:44:44;8.70;99.90
57390;DHT22;43217;52.694;6.214;2022-11-13T09:47:27;8.80;99.90
57390;DHT22;43217;52.694;6.214;2022-11-13T09:50:05;8.90;99.90
57390;DHT22;43217;52.694;6.214;2022-11-13T09:52:37;8.90;99.90
57390;DHT22;43217;52.694;6.214;2022-11-13T09:55:04;9.00;99.90
57390;DHT22;43217;52.694;6.214;2022-11-13T09:57:48;9.00;99.90
57390;DHT22;43217;52.694;6.214;2022-11-13T10:00:18;9.10;99.90
57390;DHT22;43217;52.694;6.214;2022-11-13T10:06:29;9.30;99.90
57390;DHT22;43217;52.694;6.214;2022-11-13T10:14:02;9.50;99.90
57390;DHT22;43217;52.694;6.214;2022-11-13T10:16:35;9.60;99.90
57390;DHT22;43217;52.694;6.214;2022-11-13T10:24:45;9.90;99.90
57390;DHT22;43217;52.694;6.214;2022-11-13T10:27:14;10.00;99.90
57390;DHT22;43217;52.694;6.214;2022-11-13T10:29:41;10.10;99.90
57390;DHT22;43217;52.694;6.214;2022-11-13T10:32:17;10.20;99.90
57390;DHT22;43217;52.694;6.214;2022-11-13T10:34:45;10.30;99.90
57390;DHT22;43217;52.694;6.214;2022-11-13T10:38:05;10.40;99.90
57390;DHT22;43217;52.694;6.214;2022-11-13T10:40:05;10.40;99.90
57390;DHT22;43217;52.694;6.214;2022-11-13T10:42:37;10.50;99.90
57390;DHT22;43217;52.694;6.214;2022-11-13T10:45:04;10.50;99.90
57390;DHT22;43217;52.694;6.214;2022-11-13T10:47:45;10.70;99.90
57390;DHT22;43217;52.694;6.214;2022-11-13T10:52:48;10.80;99.90
57390;DHT22;43217;52.694;6.214;2022-11-13T10:57:57;10.80;99.90
57390;DHT22;43217;52.694;6.214;2022-11-13T11:00:28;11.00;99.90
57390;DHT22;43217;52.694;6.214;2022-11-13T11:02:54;11.00;99.90
57390;DHT22;43217;52.694;6.214;2022-11-13T11:05:22;11.20;99.90
57390;DHT22;43217;52.694;6.214;2022-11-13T11:07:49;11.20;99.90
57390;DHT22;43217;52.694;6.214;2022-11-13T11:10:30;11.20;99.90
57390;DHT22;43217;52.694;6.214;2022-11-13T11:15:47;11.30;99.90
57390;DHT22;43217;52.694;6.214;2022-11-13T11:28:45;11.60;99.90
57390;DHT22;43217;52.694;6.214;2022-11-13T11:31:46;11.70;99.90
57390;DHT22;43217;52.694;6.214;2022-11-13T11:34:22;11.70;99.90
57390;DHT22;43217;52.694;6.214;2022-11-13T11:37:04;11.80;99.90
57390;DHT22;43217;52.694;6.214;2022-11-13T11:40:00;11.80;99.90
57390;DHT22;43217;52.694;6.214;2022-11-13T11:45:22;11.90;99.90
57390;DHT22;43217;52.694;6.214;2022-11-13T11:47:50;12.00;99.90
57390;DHT22;43217;52.694;6.214;2022-11-13T11:50:22;12.10;99.90
57390;DHT22;43217;52.694;6.214;2022-11-13T11:53:13;12.10;99.90
57390;DHT22;43217;52.694;6.214;2022-11-13T12:04:38;12.30;99.90
57390;DHT22;43217;52.694;6.214;2022-11-13T12:15:36;12.40;99.90
57390;DHT22;43217;52.694;6.214;2022-11-13T12:26:25;12.50;99.90
57390;DHT22;43217;52.694;6.214;2022-11-13T12:34:46;12.70;99.90
57390;DHT22;43217;52.694;6.214;2022-11-13T12:40:01;12.80;99.90
57390;DHT22;43217;52.694;6.214;2022-11-13T12:42:43;12.70;99.90
57390;DHT22;43217;52.694;6.214;2022-11-13T12:50:39;12.80;99.90
57390;DHT22;43217;52.694;6.214;2022-11-13T12:53:11;12.80;99.90
57390;DHT22;43217;52.694;6.214;2022-11-13T12:55:39;12.80;99.90
57390;DHT22;43217;52.694;6.214;2022-11-13T12:58:10;12.80;99.90
57390;DHT22;43217;52.694;6.214;2022-11-13T13:01:05;12.80;99.90
57390;DHT22;43217;52.694;6.214;2022-11-13T13:04:04;12.80;99.90
57390;DHT22;43217;52.694;6.214;2022-11-13T13:12:14;13.00;99.90
57390;DHT22;43217;52.694;6.214;2022-11-13T13:15:10;13.10;99.90
57390;DHT22;43217;52.694;6.214;2022-11-13T13:17:37;13.10;99.90
57390;DHT22;43217;52.694;6.214;2022-11-13T13:20:28;13.10;99.90
57390;DHT22;43217;52.694;6.214;2022-11-13T13:22:56;13.10;99.90
57390;DHT22;43217;52.694;6.214;2022-11-13T13:25:30;13.00;99.90
57390;DHT22;43217;52.694;6.214;2022-11-13T13:30:56;13.00;99.90
57390;DHT22;43217;52.694;6.214;2022-11-13T13:33:33;12.90;99.90
57390;DHT22;43217;52.694;6.214;2022-11-13T13:41:51;12.90;99.90
57390;DHT22;43217;52.694;6.214;2022-11-13T13:49:44;12.90;99.90
57390;DHT22;43217;52.694;6.214;2022-11-13T13:52:13;12.90;99.90
57390;DHT22;43217;52.694;6.214;2022-11-13T13:54:41;12.90;99.90
57390;DHT22;43217;52.694;6.214;2022-11-13T13:57:13;12.90;99.90
57390;DHT22;43217;52.694;6.214;2022-11-13T13:59:41;12.90;99.90
57390;DHT22;43217;52.694;6.214;2022-11-13T14:02:17;12.90;99.90
57390;DHT22;43217;52.694;6.214;2022-11-13T14:04:48;12.90;99.90
57390;DHT22;43217;52.694;6.214;2022-11-13T14:07:26;12.90;99.90
57390;DHT22;43217;52.694;6.214;2022-11-13T14:10:28;13.00;99.90
57390;DHT22;43217;52.694;6.214;2022-11-13T14:12:54;13.00;99.90
57390;DHT22;43217;52.694;6.214;2022-11-13T14:15:29;13.00;99.90
57390;DHT22;43217;52.694;6.214;2022-11-13T14:20:45;13.00;99.90
57390;DHT22;43217;52.694;6.214;2022-11-13T14:23:17;13.00;99.90
57390;DHT22;43217;52.694;6.214;2022-11-13T14:25:44;13.00;99.90
57390;DHT22;43217;52.694;6.214;2022-11-13T14:28:15;13.00;99.90
57390;DHT22;43217;52.694;6.214;2022-11-13T14:30:42;12.90;99.90
57390;DHT22;43217;52.694;6.214;2022-11-13T14:33:12;12.80;99.90
57390;DHT22;43217;52.694;6.214;2022-11-13T14:35:39;12.80;99.90
57390;DHT22;43217;52.694;6.214;2022-11-13T14:38:20;12.80;99.90
57390;DHT22;43217;52.694;6.214;2022-11-13T14:40:47;12.80;99.90
57390;DHT22;43217;52.694;6.214;2022-11-13T14:43:23;12.80;99.90
57390;DHT22;43217;52.694;6.214;2022-11-13T14:45:59;12.80;99.90
57390;DHT22;43217;52.694;6.214;2022-11-13T14:48:28;12.80;99.90
57390;DHT22;43217;52.694;6.214;2022-11-13T14:51:03;12.70;99.90
57390;DHT22;43217;52.694;6.214;2022-11-13T14:53:41;12.70;99.90
57390;DHT22;43217;52.694;6.214;2022-11-13T14:56:10;12.60;99.90
57390;DHT22;43217;52.694;6.214;2022-11-13T14:58:44;12.60;99.90
57390;DHT22;43217;52.694;6.214;2022-11-13T15:01:18;12.60;99.90
57390;DHT22;43217;52.694;6.214;2022-11-13T15:03:46;12.50;99.90
57390;DHT22;43217;52.694;6.214;2022-11-13T15:06:22;12.40;99.90
57390;DHT22;43217;52.694;6.214;2022-11-13T15:08:50;12.40;99.90
57390;DHT22;43217;52.694;6.214;2022-11-13T15:11:19;12.30;99.90
57390;DHT22;43217;52.694;6.214;2022-11-13T15:13:45;12.20;99.90
57390;DHT22;43217;52.694;6.214;2022-11-13T15:16:22;12.10;99.90
57390;DHT22;43217;52.694;6.214;2022-11-13T15:18:53;12.00;99.90
57390;DHT22;43217;52.694;6.214;2022-11-13T15:21:19;11.90;99.90
57390;DHT22;43217;52.694;6.214;2022-11-13T15:23:45;11.80;99.90
57390;DHT22;43217;52.694;6.214;2022-11-13T15:26:11;11.70;99.90
57390;DHT22;43217;52.694;6.214;2022-11-13T15:28:37;11.60;99.90
57390;DHT22;43217;52.694;6.214;2022-11-13T15:31:23;11.50;99.90
57390;DHT22;43217;52.694;6.214;2022-11-13T15:33:50;11.40;99.90
57390;DHT22;43217;52.694;6.214;2022-11-13T15:36:15;11.30;99.90
57390;DHT22;43217;52.694;6.214;2022-11-13T15:38:41;11.20;99.90
57390;DHT22;43217;52.694;6.214;2022-11-13T15:41:13;11.10;99.90
57390;DHT22;43217;52.694;6.214;2022-11-13T15:43:44;11.10;99.90
57390;DHT22;43217;52.694;6.214;2022-11-13T15:46:14;11.10;99.90
57390;DHT22;43217;52.694;6.214;2022-11-13T15:48:41;11.10;99.90
57390;DHT22;43217;52.694;6.214;2022-11-13T15:51:23;11.00;99.90
57390;DHT22;43217;52.694;6.214;2022-11-13T15:54:08;11.00;99.90
57390;DHT22;43217;52.694;6.214;2022-11-13T15:56:35;11.00;99.90
57390;DHT22;43217;52.694;6.214;2022-11-13T15:59:00;10.90;99.90
57390;DHT22;43217;52.694;6.214;2022-11-13T16:01:26;10.80;99.90
57390;DHT22;43217;52.694;6.214;2022-11-13T16:03:52;10.70;99.90
57390;DHT22;43217;52.694;6.214;2022-11-13T16:06:20;10.70;99.90
57390;DHT22;43217;52.694;6.214;2022-11-13T16:08:47;10.60;99.90
57390;DHT22;43217;52.694;6.214;2022-11-13T16:11:21;10.50;99.90
57390;DHT22;43217;52.694;6.214;2022-11-13T16:13:47;10.40;99.90
57390;DHT22;43217;52.694;6.214;2022-11-13T16:16:22;10.40;99.90
57390;DHT22;43217;52.694;6.214;2022-11-13T16:18:49;10.30;99.90
57390;DHT22;43217;52.694;6.214;2022-11-13T16:21:27;10.30;99.90
57390;DHT22;43217;52.694;6.214;2022-11-13T16:23:53;10.30;99.90
57390;DHT22;43217;52.694;6.214;2022-11-13T16:26:23;10.20;99.90
57390;DHT22;43217;52.694;6.214;2022-11-13T16:28:50;10.20;99.90
57390;DHT22;43217;52.694;6.214;2022-11-13T16:31:22;10.10;99.90
57390;DHT22;43217;52.694;6.214;2022-11-13T16:33:48;10.10;99.90
57390;DHT22;43217;52.694;6.214;2022-11-13T16:36:24;10.00;99.90
57390;DHT22;43217;52.694;6.214;2022-11-13T16:38:51;10.00;99.90
57390;DHT22;43217;52.694;6.214;2022-11-13T16:41:17;9.90;99.90
57390;DHT22;43217;52.694;6.214;2022-11-13T16:43:43;9.90;99.90
57390;DHT22;43217;52.694;6.214;2022-11-13T16:48:49;9.90;99.90
57390;DHT22;43217;52.694;6.214;2022-11-13T16:51:14;9.80;99.90
57390;DHT22;43217;52.694;6.214;2022-11-13T16:53:41;9.80;99.90
57390;DHT22;43217;52.694;6.214;2022-11-13T16:56:26;9.80;99.90
57390;DHT22;43217;52.694;6.214;2022-11-13T16:58:54;9.90;99.90
57390;DHT22;43217;52.694;6.214;2022-11-13T17:01:20;9.80;99.90
57390;DHT22;43217;52.694;6.214;2022-11-13T17:03:49;9.80;99.90
57390;DHT22;43217;52.694;6.214;2022-11-13T17:06:19;9.80;99.90
57390;DHT22;43217;52.694;6.214;2022-11-13T17:08:48;9.80;99.90
57390;DHT22;43217;52.694;6.214;2022-11-13T17:11:14;9.80;99.90
57390;DHT22;43217;52.694;6.214;2022-11-13T17:13:40;9.80;99.90
57390;DHT22;43217;52.694;6.214;2022-11-13T17:16:06;9.90;99.90
57390;DHT22;43217;52.694;6.214;2022-11-13T17:18:31;9.90;99.90
57390;DHT22;43217;52.694;6.214;2022-11-13T17:21:00;9.90;99.90
57390;DHT22;43217;52.694;6.214;2022-11-13T17:23:26;9.90;99.90
57390;DHT22;43217;52.694;6.214;2022-11-13T17:25:51;9.90;99.90
57390;DHT22;43217;52.694;6.214;2022-11-13T17:28:18;9.90;99.90
57390;DHT22;43217;52.694;6.214;2022-11-13T17:30:43;9.90;99.90
57390;DHT22;43217;52.694;6.214;2022-11-13T17:33:09;9.90;99.90
57390;DHT22;43217;52.694;6.214;2022-11-13T17:35:36;9.80;99.90
57390;DHT22;43217;52.694;6.214;2022-11-13T17:38:02;9.80;99.90
57390;DHT22;43217;52.694;6.214;2022-11-13T17:40:27;9.70;99.90
57390;DHT22;43217;52.694;6.214;2022-11-13T17:42:53;9.70;99.90